METAR Data
IDs: Format: Raw Decoded Include TAF

Data at: 0153 UTC 19 Oct 2021

KSLG 190056Z AUTO 13005KT 10SM CLR 15/08 A3007 RMK AO2 SLP183 T01500083 PNO $
KSLG 182356Z AUTO 13006KT 10SM CLR 16/08 A3006 RMK AO2 SLP178 6//// T01560078 10222 20156 56009 PNO $
KSLG 182256Z AUTO 16007KT 10SM CLR 20/08 A3006 RMK AO2 SLP177 T02000078 PNO $
KSLG 182156Z AUTO 18010KT 10SM CLR 21/07 A3007 RMK AO2 SLP179 T02110067 PNO $
KSLG 182056Z AUTO 15007G14KT 10SM CLR 22/07 A3009 RMK AO2 SLP185 6//// T02170067 56029 PNO $
KSLG 181956Z AUTO 17013KT 10SM CLR 22/07 A3010 RMK AO2 SLP188 T02170067 PNO $
KSLG 181856Z AUTO 19013KT 10SM CLR 22/08 A3014 RMK AO2 SLP202 T02170078 PNO $
KSLG 181756Z AUTO 17011G18KT 10SM CLR 21/07 A3017 RMK AO2 SLP214 6//// T02110067 10211 20067 58015 PNO $
KSLG 181656Z AUTO 20010G14KT 10SM CLR 20/07 A3020 RMK AO2 SLP221 T02000067 PNO $
KSLG 181556Z AUTO 19009KT 10SM CLR 18/08 A3021 RMK AO2 SLP228 T01780078 PNO $
KSLG 181456Z AUTO 13003KT 10SM CLR 14/09 A3022 RMK AO2 SLP231 6//// T01440089 53012 PNO $
KSLG 181356Z AUTO 00000KT 10SM CLR 10/08 A3021 RMK AO2 SLP231 T01000078 PNO $
KSLG 181256Z AUTO 09003KT 10SM CLR 07/06 A3019 RMK AO2 SLP221 T00720061 PNO $
KSLG 181156Z AUTO 09003KT 10SM CLR 07/06 A3018 RMK AO2 SLP220 6//// 7//// T00670056 10089 20061 53004 PNO $
KSLG 181056Z AUTO 10003KT 10SM CLR 07/06 A3018 RMK AO2 SLP216 T00720061 PNO $
KSLG 180956Z AUTO 00000KT 10SM CLR 06/06 A3017 RMK AO2 SLP214 T00610056 PNO $
KSLG 180856Z AUTO 10004KT 10SM CLR 07/06 A3017 RMK AO2 SLP214 6//// T00670061 58006 PNO $
KSLG 180756Z AUTO 12004KT 10SM CLR 09/07 A3018 RMK AO2 SLP217 T00890067 PNO $
KSLG 180656Z AUTO 00000KT 10SM CLR 08/07 A3019 RMK AO2 SLP220 T00830072 PNO $
KSLG 180556Z AUTO 00000KT 10SM CLR 09/07 A3019 RMK AO2 SLP219 6//// T00890072 10172 20089 402220044 58006 PNO $
KSLG 180456Z AUTO 00000KT 10SM CLR 10/07 A3020 RMK AO2 SLP222 T01000072 PNO $
KSLG 180356Z AUTO 11003KT 10SM CLR 11/07 A3021 RMK AO2 SLP226 T01060072 PNO $
KSLG 180256Z AUTO 13005KT 10SM CLR 11/08 A3021 RMK AO2 SLP229 6//// T01110078 51001 PNO $
KSLG 180156Z AUTO 13006KT 10SM CLR 12/08 A3021 RMK AO2 SLP229 T01170083 PNO $
KSLG 180056Z AUTO 14004KT 10SM CLR 16/07 A3021 RMK AO2 SLP229 T01560067 PNO $
KSLG 172356Z AUTO 17004KT 10SM CLR 18/07 A3021 RMK AO2 SLP228 6//// T01780067 10222 20178 56009 PNO $
KSLG 172256Z AUTO 22005KT 10SM CLR 20/07 A3021 RMK AO2 SLP228 T02000067 PNO $
KSLG 172156Z AUTO 24005KT 10SM CLR 22/05 A3022 RMK AO2 SLP232 T02170050 PNO $
KSLG 172056Z AUTO VRB06KT 10SM CLR 22/06 A3023 RMK AO2 SLP236 6//// T02170056 56022 PNO $
KSLG 171956Z AUTO 25007KT 10SM CLR 22/06 A3025 RMK AO2 SLP240 T02170056 PNO $
KSLG 171856Z AUTO 25010KT 10SM CLR 21/05 A3027 RMK AO2 SLP248 T02110050 PNO $
KSLG 171756Z AUTO 22009KT 10SM CLR 21/04 A3030 RMK AO2 SLP258 6//// T02060044 10206 20044 58015 PNO $
KSLG 171656Z AUTO 23008KT 10SM CLR 19/06 A3032 RMK AO2 SLP266 T01940056 PNO $
KSLG 171556Z AUTO 23007KT 10SM CLR 17/07 A3033 RMK AO2 SLP272 T01720067 PNO $
KSLG 171456Z AUTO 20004KT 10SM CLR 13/08 A3034 RMK AO2 SLP276 6//// T01330078 53010 PNO $
KSLG 171356Z AUTO 11003KT 10SM CLR 09/07 A3033 RMK AO2 SLP274 T00890072 PNO $